• Join FlightAware (Why Join?)
  • Login
  • US Flag 
Gobble Gobble! 
07:22AM EST


 

Airport Tracker/Info


-or-


 

Live Flight TrackerFlight Track Log ✈ DAL1981 ✈ 06-May-2013 ✈ KALB - KATL

Flight Track Log - Related Links

Times and Time Zones

All times are in EDT time to prevent confusion due to time zone crossing. See the DAL1981 flight status page for this flight to view local times or setup timezone preferences in your user account.

Time Position Orientation Groundspeed Altitude Reporting Facility
EDT Latitude Longitude Course Direction KTS MPH feet Rate Location/Type
06:16AM 42.7339 -73.8081 180° South 152 175 1,300  Level Boston Center
06:18AM 42.6792 -73.8664 218° Southwest 243 280 3,700 2,100 Climbing Boston Center
06:19AM 42.5046 -74.1437 200° South  Level Estimated
06:19AM 42.7197 -73.9519 303° West 218 251 6,600  Level Boston Center
06:20AM 42.4229 -74.2571 198° South  Level Estimated
06:20AM 42.7306 -74.0625 278° West 260 299 9,500  Level Boston Center
06:21AM 42.3410 -74.3701 180° South  Level Estimated
06:21AM 42.7411 -74.1928 276° West 312 359 11,100  Level Boston Center
06:22AM 42.7308 -74.3169 264° West 355 409 13,300 2,400 Climbing Boston Center
06:23AM 42.6250 -74.2883 169° South 241 277 15,900 2,100 Climbing Boston Center
06:24AM 42.5322 -74.2292 155° Southeast 372 428 17,600 1,620 Climbing Boston Center
06:25AM 42.4289 -74.1644 155° Southeast 395 455 19,200 1,680 Climbing Boston Center
06:26AM 42.3175 -74.0883 153° Southeast 418 481 21,000 1,680 Climbing Boston Center
06:27AM 42.2017 -74.0319 160° South 433 498 22,600 1,620 Climbing Boston Center
06:28AM 42.0722 -74.0428 184° South 445 512 24,300 1,800 Climbing Boston Center
06:29AM 41.9389 -74.0506 182° South 461 531 26,200 1,740 Climbing Boston Center
06:30AM 41.7133 -74.0639 183° South 453 521 29,000 1,380 Climbing New York Center
06:31AM 41.5861 -74.0689 182° South 463 533 30,000 480 Climbing New York Center
06:32AM 41.4608 -74.0819 184° South 463 533 30,000  Level New York Center
06:33AM 41.3561 -74.1761 214° Southwest 439 505 30,000  Level New York Center
06:34AM 41.2639 -74.2681 217° Southwest 446 513 30,000  Level New York Center
06:35AM 41.1692 -74.3736 220° Southwest 451 519 30,000  Level New York Center
06:36AM 41.0703 -74.4756 218° Southwest 451 519 30,000  Level New York Center
06:37AM 40.9753 -74.5803 220° Southwest 456 525 30,000  Level New York Center
06:38AM 40.8778 -74.6872 220° Southwest 456 525 30,000  Level New York Center
06:39AM 40.7786 -74.7911 218° Southwest 463 533 30,000  Level New York Center
06:40AM 40.6833 -74.8950 220° Southwest 463 533 30,000  Level New York Center
06:41AM 40.5881 -74.9986 220° Southwest 458 527 30,000  Level New York Center
06:42AM 40.5044 -75.1192 228° Southwest 452 520 30,000  Level New York Center
06:43AM 40.4225 -75.2475 230° Southwest 452 520 30,000  Level New York Center
06:44AM 40.3428 -75.3703 230° Southwest 457 526 30,000  Level New York Center
06:45AM 40.2628 -75.4956 230° Southwest 457 526 30,000  Level New York Center
06:46AM 40.1806 -75.6203 229° Southwest 457 526 30,000  Level New York Center
06:47AM 40.0986 -75.7394 228° Southwest 457 526 30,000  Level New York Center
06:48AM 40.0181 -75.8639 230° Southwest 457 526 30,000  Level New York Center
06:49AM 39.9378 -75.9853 229° Southwest 457 526 30,000  Level New York Center
06:52AM 39.7367 -76.2794 228° Southwest 454 522 30,000  Level Washington Center
06:53AM 39.6589 -76.4028 231° Southwest 454 522 30,000  Level Washington Center
06:54AM 39.5767 -76.5203 228° Southwest 454 522 30,000  Level Washington Center
06:55AM 39.4944 -76.6378 228° Southwest 449 517 30,000  Level Washington Center
06:56AM 39.4164 -76.7519 229° Southwest 444 511 30,000  Level Washington Center
06:57AM 39.3358 -76.8717 229° Southwest 439 505 30,000  Level Washington Center
06:58AM 39.2575 -76.9853 228° Southwest 439 505 30,000  Level Washington Center
06:59AM 39.1769 -77.1017 228° Southwest 439 505 30,000  Level Washington Center
07:00AM 39.0961 -77.2203 229° Southwest 439 505 30,000  Level Washington Center
07:01AM 39.0156 -77.3336 228° Southwest 434 499 30,000  Level Washington Center
07:02AM 38.9325 -77.4489 227° Southwest 439 505 30,000  Level Washington Center
07:03AM 38.8514 -77.5669 229° Southwest 439 505 30,000  Level Washington Center
07:04AM 38.7786 -77.6714 228° Southwest 445 512 30,000  Level Washington Center
07:05AM 38.6975 -77.7889 229° Southwest 445 512 30,000  Level Washington Center
07:06AM 38.6200 -77.9061 230° Southwest 439 505 30,000  Level Washington Center
07:07AM 38.5489 -78.0286 233° Southwest 439 505 30,000  Level Washington Center
07:08AM 38.4775 -78.1483 233° Southwest 434 499 30,000  Level Washington Center
07:09AM 38.4061 -78.2706 233° Southwest 429 494 30,000  Level Washington Center
07:10AM 38.3344 -78.3922 233° Southwest 434 499 30,000  Level Washington Center
07:11AM 38.2628 -78.5111 233° Southwest 434 499 30,000  Level Washington Center
07:12AM 38.1847 -78.6403 232° Southwest 428 493 30,100  Climbing Washington Center
07:13AM 38.1214 -78.7511 234° Southwest 428 493 30,000 -60 Descending Washington Center
07:14AM 38.0431 -78.8717 230° Southwest 433 498 30,000  Level Washington Center
07:15AM 37.9647 -78.9842 229° Southwest 438 504 30,000  Level Washington Center
07:16AM 37.8842 -79.0992 228° Southwest 444 511 30,000  Level Washington Center
07:17AM 37.7972 -79.2211 228° Southwest 444 511 30,000  Level Washington Center
07:18AM 37.7125 -79.3300 225° Southwest 439 505 30,000  Level Washington Center
07:19AM 37.6339 -79.4442 229° Southwest 439 505 30,000  Level Washington Center
07:20AM 37.5531 -79.5553 227° Southwest 439 505 30,000  Level Washington Center
07:21AM 37.4719 -79.6689 228° Southwest 439 505 30,000  Level Washington Center
07:22AM 37.3908 -79.7875 229° Southwest 451 519 30,000  Level Washington Center
07:23AM 37.3075 -79.8978 226° Southwest 451 519 30,000  Level Washington Center
07:24AM 37.2264 -80.0078 227° Southwest 446 513 30,000 540 Level Washington Center
07:25AM 37.1228 -80.1525 228° Southwest 440 506 31,200 1,200 Climbing Atlanta Center
07:26AM 37.0586 -80.2364 226° Southwest 422 486 32,600 1,200 Climbing Atlanta Center
07:27AM 36.9806 -80.3389 226° Southwest 412 474 33,700 660 Climbing Atlanta Center
07:28AM 36.8978 -80.4336 222° Southwest 412 474 34,000 120 Climbing Atlanta Center
07:29AM 36.8064 -80.5181 217° Southwest 412 474 34,000  Level Atlanta Center
07:30AM 36.7072 -80.6156 218° Southwest 414 476 34,000  Level Atlanta Center
07:31AM 36.6156 -80.6997 216° Southwest 414 476 34,000  Level Atlanta Center
07:32AM 36.5283 -80.7861 219° Southwest 407 468 34,000  Level Atlanta Center
07:33AM 36.4344 -80.8700 216° Southwest 412 474 34,000  Level Atlanta Center
07:34AM 36.3428 -80.9483 215° Southwest 412 474 34,000  Level Atlanta Center
07:35AM 36.2575 -81.0442 222° Southwest 407 468 34,000  Level Atlanta Center
07:36AM 36.1908 -81.1419 230° Southwest 412 474 34,000  Level Atlanta Center
07:37AM 36.1183 -81.2525 231° Southwest 423 487 34,000  Level Atlanta Center
07:38AM 36.0417 -81.3603 229° Southwest 423 487 34,000  Level Atlanta Center
07:39AM 35.9689 -81.4681 230° Southwest 418 481 34,000  Level Atlanta Center
07:40AM 35.8958 -81.5781 231° Southwest 418 481 34,000  Level Atlanta Center
07:41AM 35.8208 -81.6878 230° Southwest 418 481 34,000  Level Atlanta Center
07:42AM 35.7478 -81.7947 230° Southwest 413 475 34,000  Level Atlanta Center
07:43AM 35.6706 -81.9042 229° Southwest 413 475 34,000  Level Atlanta Center
07:44AM 35.5953 -82.0133 230° Southwest 413 475 34,000  Level Atlanta Center
07:45AM 35.5175 -82.1175 227° Southwest 413 475 34,000 -180 Level Atlanta Center
07:46AM 35.4356 -82.2189 225° Southwest 418 481 33,700 -660 Descending Atlanta Center
07:47AM 35.3475 -82.3278 225° Southwest 413 475 32,700 -1,740 Descending Atlanta Center
07:48AM 35.2694 -82.4258 226° Southwest 406 467 30,300 -1,800 Descending Atlanta Center
07:49AM 35.1872 -82.5242 224° Southwest 406 467 29,100 -1,080 Descending Atlanta Center
07:50AM 35.1072 -82.6219 225° Southwest 406 467 28,200 -960 Descending Atlanta Center
07:51AM 35.0206 -82.7225 224° Southwest 412 474 27,200 -1,020 Descending Atlanta Center
07:52AM 34.9383 -82.8275 226° Southwest 417 480 26,200 -1,020 Descending Atlanta Center
07:53AM 34.8536 -82.9250 223° Southwest 428 493 25,200 -1,020 Descending Atlanta Center
07:54AM 34.7731 -83.0222 225° Southwest 423 487 24,200 -600 Descending Atlanta Center
07:55AM 34.6903 -83.1242 225° Southwest 413 475 24,000 -120 Descending Atlanta Center
07:56AM 34.6097 -83.2211 225° Southwest 408 470 24,000 -360 Level Atlanta Center
07:57AM 34.5267 -83.3203 225° Southwest 413 475 23,300 -1,980 Descending Atlanta Center
07:58AM 34.4481 -83.4167 225° Southwest 407 468 20,100 -2,640 Descending Atlanta Center
08:00AM 34.3028 -83.5886 224° Southwest 394 453 15,500 -2,280 Descending Atlanta Center
08:01AM 34.2278 -83.6744 223° Southwest 378 435 13,400 -1,620 Descending Atlanta Center
08:02AM 34.1572 -83.7603 225° Southwest 371 427 12,300 -660 Descending Atlanta Center
08:03AM 34.0967 -83.8331 225° Southwest 333 383 12,100 -120 Descending Atlanta Center
08:04AM 34.0383 -83.8958 222° Southwest 290 334 12,100 -360 Level Atlanta Center
08:05AM 33.9758 -83.9611 221° Southwest 284 327 11,400 -1,440 Descending Atlanta Center
08:06AM 33.8986 -83.9661 183° South 271 312 9,300 -1,080 Descending Atlanta Center
08:08AM 33.7503 -83.9814 185° South 271 312 8,200 -840 Descending Atlanta Center
08:09AM 33.6794 -83.9939 188° South 271 312 6,800 -900 Descending Atlanta Center
08:10AM 33.6356 -84.0364 219° Southwest 228 262 6,400 -300 Descending Atlanta Center
08:11AM 33.6294 -84.0911 262° West 183 211 6,300 -600 Descending Atlanta Center
08:12AM 33.6333 -84.1667 274° West 191 220 5,200 -1,020 Descending Atlanta TRACON
08:14AM 33.6333 -84.2833 270° West 177 204 3,200 -1,020 Descending Atlanta TRACON
08:15AM 33.6333 -84.3500 270° West 183 211 2,200 -900 Descending Atlanta TRACON
08:16AM 33.6333 -84.4000 270° West 139 160 1,400 -840 Descending Atlanta TRACON